Time;durP1;ratioP1;P1;durP2;ratioP2;P2;SDS_P1;SDS_P2;PMS_P1;PMS_P2;Temp;Humidity;BMP_temperature;BMP_pressure;BME280_temperature;BME280_humidity;BME280_pressure;Samples;Min_cycle;Max_cycle;Signal;HPM_P1;HPM_P2
2022/02/03 00:00:09;;;;;;;4.35;2.38;;;;;;;-0.82;84.30;98535.94;5108633;28;20023;-65
2022/02/03 00:02:48;;;;;;;4.45;2.50;;;;;;;-0.82;84.37;98548.56;5107942;28;20016;-66
2022/02/03 00:05:22;;;;;;;5.55;2.22;;;;;;;-0.82;84.54;98552.09;5111815;27;20379;-67
2022/02/03 00:24:25;;;;;;;6.70;2.88;;;;;;;-0.96;84.26;98575.59;5107631;28;20530;-67
2022/02/03 00:27:12;;;;;;;10.63;3.25;;;;;;;-1.02;84.02;98584.56;5108008;28;20019;-66
2022/02/03 00:30:00;;;;;;;5.38;1.85;;;;;;;-1.11;83.86;98589.38;5108192;28;20032;-66
2022/02/03 00:35:22;;;;;;;5.15;2.70;;;;;;;-1.21;84.10;98597.91;5107981;28;20082;-66
2022/02/03 00:48:57;;;;;;;5.95;2.70;;;;;;;-1.25;83.98;98622.81;5107412;28;20031;-65
2022/02/03 00:51:25;;;;;;;7.28;2.70;;;;;;;-1.29;84.33;98635.84;5108169;28;20096;-65
2022/02/03 00:53:51;;;;;;;5.40;2.30;;;;;;;-1.30;83.92;98642.25;5089077;28;20308;-65
2022/02/03 00:56:25;;;;;;;6.38;3.10;;;;;;;-1.34;84.16;98651.81;5107729;28;20501;-65
2022/02/03 00:58:57;;;;;;;5.07;2.25;;;;;;;-1.37;83.96;98649.53;5109662;28;20107;-65
2022/02/03 01:01:30;;;;;;;5.05;2.10;;;;;;;-1.38;84.26;98651.41;5111274;28;20063;-65
2022/02/03 01:04:00;;;;;;;4.20;2.40;;;;;;;-1.35;84.22;98660.91;5111184;28;20436;-65
2022/02/03 01:06:27;;;;;;;7.07;3.17;;;;;;;-1.34;84.15;98659.88;5092620;28;20032;-65
2022/02/03 01:08:55;;;;;;;8.55;3.35;;;;;;;-1.32;83.96;98654.28;5093394;28;20102;-65
2022/02/03 01:11:27;;;;;;;6.10;2.83;;;;;;;-1.31;84.13;98659.44;5111535;28;20478;-65
2022/02/03 01:35:24;;;;;;;4.80;3.00;;;;;;;-1.35;83.98;98658.22;5110653;28;20069;-65
2022/02/03 01:43:45;;;;;;;7.28;3.75;;;;;;;-1.39;83.93;98673.97;5110444;28;20885;-66
2022/02/03 01:46:17;;;;;;;8.20;3.75;;;;;;;-1.43;84.00;98669.25;5109600;28;20051;-65
2022/02/03 01:54:03;;;;;;;9.68;3.60;;;;;;;-1.51;83.25;98687.28;5111038;28;20153;-65
2022/02/03 01:56:37;;;;;;;9.18;3.53;;;;;;;-1.61;83.19;98686.88;5110422;28;20036;-66
2022/02/03 01:59:04;;;;;;;7.53;3.60;;;;;;;-1.68;83.20;98691.44;5110465;28;20028;-66
2022/02/03 02:01:33;;;;;;;8.00;4.03;;;;;;;-1.72;83.42;98688.38;5111279;28;20092;-66
2022/02/03 02:04:17;;;;;;;7.72;3.10;;;;;;;-1.76;83.60;98694.34;5091670;28;20395;-65
2022/02/03 02:07:04;;;;;;;6.72;2.88;;;;;;;-1.81;83.44;98695.81;5110641;28;20042;-66
2022/02/03 02:13:17;;;;;;;6.78;3.30;;;;;;;-1.91;83.51;98703.50;5109921;28;20065;-65
2022/02/03 02:16:02;;;;;;;7.85;4.40;;;;;;;-1.97;83.50;98707.00;5109630;28;20031;-65
2022/02/03 02:43:57;;;;;;;7.53;4.05;;;;;;;-2.27;83.58;98763.88;5005354;28;20072;-66
2022/02/03 02:46:29;;;;;;;7.80;4.32;;;;;;;-2.15;84.07;98764.91;5077948;28;20130;-65
2022/02/03 02:49:12;;;;;;;10.98;5.75;;;;;;;-2.05;83.99;98766.34;5109562;28;20031;-66
2022/02/03 02:52:05;;;;;;;8.57;4.72;;;;;;;-1.97;83.84;98780.41;5108792;28;20124;-66
2022/02/03 03:03:28;;;;;;;42.60;17.13;;;;;;;-1.77;83.65;98776.91;5108547;28;20035;-66
2022/02/03 03:35:52;;;;;;;7.90;4.25;;;;;;;-1.37;83.63;98827.97;5109131;28;20146;-66
2022/02/03 03:38:20;;;;;;;8.88;4.72;;;;;;;-1.33;83.50;98828.34;5107675;28;20024;-66
2022/02/03 03:40:55;;;;;;;13.52;7.97;;;;;;;-1.26;82.79;98825.69;5108415;28;20036;-65
2022/02/03 03:43:33;;;;;;;11.68;5.78;;;;;;;-1.24;83.34;98835.19;5108643;28;20051;-66
2022/02/03 03:46:18;;;;;;;19.65;8.30;;;;;;;-1.27;82.96;98840.16;5108622;28;20019;-65
2022/02/03 03:48:58;;;;;;;17.58;7.40;;;;;;;-1.31;83.41;98839.75;5108573;28;20020;-65
2022/02/03 03:51:31;;;;;;;11.73;5.15;;;;;;;-1.32;83.29;98839.97;5108737;28;20027;-66
2022/02/03 03:54:06;;;;;;;11.45;4.95;;;;;;;-1.29;82.87;98847.63;5108698;28;20032;-65
2022/02/03 03:56:48;;;;;;;18.20;6.40;;;;;;;-1.26;83.15;98847.22;5108962;27;20027;-66
2022/02/03 04:51:36;;;;;;;6.97;4.30;;;;;;;-0.89;82.59;98861.00;5111676;28;20073;-65
2022/02/03 05:15:18;;;;;;;38.05;11.63;;;;;;;-0.99;82.40;98874.88;5111453;28;20028;-66
2022/02/03 05:21:06;;;;;;;41.88;12.68;;;;;;;-1.05;82.35;98873.06;5111352;28;20049;-65
2022/02/03 05:24:43;;;;;;;44.20;15.07;;;;;;;-1.06;82.54;98874.91;5110764;28;20047;-65
2022/02/03 05:43:15;;;;;;;36.75;10.90;;;;;;;-1.06;82.68;98890.25;5110364;28;20034;-67
2022/02/03 06:04:13;;;;;;;22.02;7.78;;;;;;;-1.11;82.18;98890.84;5111803;28;20059;-66
2022/02/03 06:09:47;;;;;;;17.55;6.45;;;;;;;-1.06;82.01;98895.63;5110370;28;20038;-66
2022/02/03 06:14:53;;;;;;;10.80;6.30;;;;;;;-1.05;82.18;98902.66;5110655;28;20040;-67
2022/02/03 06:22:49;;;;;;;8.90;5.28;;;;;;;-1.08;82.24;98905.78;5110833;28;20042;-67
2022/02/03 06:27:46;;;;;;;8.98;4.78;;;;;;;-1.10;81.99;98903.28;5109611;28;20035;-67
2022/02/03 06:30:18;;;;;;;9.05;4.72;;;;;;;-1.16;82.43;98897.91;5109905;28;20494;-68
2022/02/03 06:32:44;;;;;;;11.05;5.55;;;;;;;-1.23;81.88;98914.88;5111662;28;20062;-67
2022/02/03 06:35:12;;;;;;;9.95;5.90;;;;;;;-1.30;82.05;98911.38;5111092;28;20063;-67
2022/02/03 06:37:38;;;;;;;14.15;5.25;;;;;;;-1.35;82.03;98913.84;5111909;28;20490;-67
2022/02/03 06:40:07;;;;;;;13.57;5.93;;;;;;;-1.32;82.12;98924.19;5107219;28;20081;-67
2022/02/03 06:42:32;;;;;;;13.15;6.45;;;;;;;-1.30;82.36;98924.81;5110641;28;20028;-68
2022/02/03 06:45:13;;;;;;;12.52;6.95;;;;;;;-1.24;82.39;98932.06;5093020;28;20046;-67
2022/02/03 06:47:58;;;;;;;15.13;7.22;;;;;;;-1.25;81.90;98933.09;5114552;27;20034;-67
2022/02/03 06:50:47;;;;;;;12.52;7.25;;;;;;;-1.20;82.43;98936.00;5111199;28;20028;-67
2022/02/03 06:53:18;;;;;;;30.67;12.57;;;;;;;-1.18;82.23;98933.09;5111399;28;20023;-67
2022/02/03 06:55:50;;;;;;;58.85;20.83;;;;;;;-1.15;82.30;98940.75;5110481;27;20073;-67
2022/02/03 07:00:56;;;;;;;43.88;16.92;;;;;;;-1.04;82.33;98952.78;5109579;28;20036;-66
2022/02/03 07:03:25;;;;;;;31.00;12.43;;;;;;;-0.86;82.61;98967.44;5096370;28;20032;-66
2022/02/03 07:05:51;;;;;;;18.15;8.15;;;;;;;-0.78;82.90;98970.75;5092918;28;20023;-67
2022/02/03 07:08:18;;;;;;;31.60;11.38;;;;;;;-0.68;83.63;98973.03;5111607;27;20027;-67
2022/02/03 07:10:44;;;;;;;26.65;9.93;;;;;;;-0.59;83.08;98968.25;5110391;28;20114;-67
2022/02/03 07:13:11;;;;;;;40.58;13.32;;;;;;;-0.54;83.13;98967.59;5092715;28;20392;-67
2022/02/03 07:15:36;;;;;;;46.35;14.27;;;;;;;-0.49;83.06;98965.94;5108075;28;20208;-67
2022/02/03 07:18:03;;;;;;;36.45;12.35;;;;;;;-0.41;82.57;98969.44;5110622;27;20106;-67
2022/02/03 07:20:30;;;;;;;52.72;17.30;;;;;;;-0.36;82.68;98966.94;5085782;28;20045;-67
2022/02/03 07:22:55;;;;;;;35.88;14.25;;;;;;;-0.26;83.17;98971.91;5109757;28;20020;-67
2022/02/03 07:25:21;;;;;;;26.00;13.00;;;;;;;-0.24;82.65;98967.13;5110389;28;20028;-67
2022/02/03 07:27:46;;;;;;;37.85;16.00;;;;;;;-0.21;82.73;98972.09;5111718;27;20020;-67
2022/02/03 07:30:13;;;;;;;34.20;15.43;;;;;;;-0.20;82.61;98971.00;5108548;28;20028;-67
2022/02/03 07:32:38;;;;;;;46.50;17.58;;;;;;;-0.16;82.80;98966.84;5110883;28;20090;-66
2022/02/03 07:35:05;;;;;;;64.53;18.45;;;;;;;-0.07;82.51;98972.84;5091692;28;20360;-67
2022/02/03 07:37:30;;;;;;;47.03;14.32;;;;;;;-0.03;82.34;98966.81;5091884;28;20020;-67
2022/02/03 07:39:58;;;;;;;25.48;9.05;;;;;;;-0.01;82.88;98963.91;5110654;28;20402;-67
2022/02/03 07:42:24;;;;;;;35.85;11.95;;;;;;;-0.02;82.82;98973.84;5110813;28;20020;-67
2022/02/03 07:44:50;;;;;;;53.53;17.33;;;;;;;-0.01;82.20;98958.53;5110376;28;20043;-67
2022/02/03 07:47:17;;;;;;;29.48;11.05;;;;;;;-0.01;82.59;98966.59;5113040;27;20107;-67
2022/02/03 07:49:42;;;;;;;18.42;8.73;;;;;;;-0.02;82.07;98962.25;5110291;28;20036;-67
2022/02/03 07:52:08;;;;;;;25.60;9.27;;;;;;;-0.02;82.29;98968.47;5091866;28;20015;-67
2022/02/03 07:54:34;;;;;;;21.92;9.05;;;;;;;-0.05;82.46;98960.78;5110401;27;20599;-67
2022/02/03 07:57:00;;;;;;;25.25;10.38;;;;;;;-0.05;81.93;98968.88;5091760;28;20039;-67
2022/02/03 07:59:27;;;;;;;22.95;9.50;;;;;;;-0.01;82.65;98969.31;5108126;28;20119;-66
2022/02/03 08:01:52;;;;;;;22.13;9.38;;;;;;;0.04;82.70;98971.34;5110358;28;20089;-65
2022/02/03 08:04:22;;;;;;;43.97;14.57;;;;;;;0.11;82.65;98964.88;5109233;28;20437;-66
2022/02/03 08:06:48;;;;;;;30.42;11.07;;;;;;;0.11;82.11;98955.97;5108633;28;20480;-66
2022/02/03 08:09:27;;;;;;;21.17;9.32;;;;;;;0.13;82.03;98952.00;5103976;28;20049;-66
2022/02/03 08:11:54;;;;;;;18.63;7.85;;;;;;;0.17;82.26;98955.09;5105331;28;20106;-66
2022/02/03 08:14:43;;;;;;;15.25;7.20;;;;;;;0.19;82.55;98953.03;5107881;28;20123;-66
2022/02/03 08:17:15;;;;;;;11.95;6.15;;;;;;;0.27;82.23;98946.53;5108556;28;20075;-68
2022/02/03 08:22:20;;;;;;;17.50;8.38;;;;;;;0.39;82.22;98941.25;5107330;28;20032;-67
2022/02/03 08:24:50;;;;;;;21.23;10.13;;;;;;;0.44;82.62;98952.22;5108914;28;20027;-67
2022/02/03 08:32:21;;;;;;;22.50;11.57;;;;;;;0.44;82.05;98941.44;5108387;28;20081;-67
2022/02/03 08:37:19;;;;;;;30.63;14.18;;;;;;;0.51;82.01;98944.09;5111313;28;20344;-63
2022/02/03 08:39:56;;;;;;;31.45;14.52;;;;;;;0.50;82.23;98950.53;5109218;28;20182;-63
2022/02/03 08:42:22;;;;;;;29.20;13.30;;;;;;;0.51;82.23;98944.09;5091532;28;20038;-66
2022/02/03 08:44:48;;;;;;;27.10;12.95;;;;;;;0.54;82.48;98943.66;5089370;28;20043;-65
2022/02/03 08:47:14;;;;;;;30.67;14.25;;;;;;;0.56;82.29;98934.31;5102928;28;20108;-65
2022/02/03 08:49:45;;;;;;;30.30;12.73;;;;;;;0.61;82.64;98932.81;5108697;28;20035;-65
2022/02/03 08:52:17;;;;;;;40.33;17.95;;;;;;;0.65;82.08;98940.25;5108238;28;20019;-65
2022/02/03 08:54:55;;;;;;;37.10;15.00;;;;;;;0.67;82.12;98935.47;5108247;28;20055;-65
2022/02/03 08:57:34;;;;;;;31.63;14.70;;;;;;;0.74;82.64;98924.59;5106013;28;20558;-65
2022/02/03 09:32:15;;;;;;;49.30;22.70;;;;;;;1.17;81.76;98901.38;5111698;28;20046;-65
2022/02/03 09:35:53;;;;;;;55.53;22.02;;;;;;;1.12;81.29;98899.31;5111136;28;20043;-65
2022/02/03 09:59:45;;;;;;;33.33;14.20;;;;;;;1.16;81.08;98895.13;5108238;28;20077;-63
2022/02/03 10:02:17;;;;;;;36.42;15.88;;;;;;;1.18;81.21;98890.31;5111287;27;20027;-64
2022/02/03 10:04:53;;;;;;;34.13;15.20;;;;;;;1.20;81.56;98884.72;5103651;27;20106;-66
2022/02/03 10:07:21;;;;;;;33.13;15.27;;;;;;;1.24;81.49;98885.06;5111054;27;20031;-65
2022/02/03 10:09:49;;;;;;;32.53;15.10;;;;;;;1.27;81.12;98882.72;5108103;27;20374;-67
2022/02/03 10:12:16;;;;;;;29.05;13.88;;;;;;;1.32;80.97;98885.59;5088897;28;20043;-72
2022/02/03 10:14:45;;;;;;;29.65;13.00;;;;;;;1.32;81.38;98876.69;5110648;27;20027;-66
2022/02/03 10:17:12;;;;;;;31.05;14.15;;;;;;;1.32;80.85;98885.59;5110690;27;20042;-66
2022/02/03 10:19:41;;;;;;;30.67;12.65;;;;;;;1.40;80.95;98872.84;5108992;27;20501;-66
2022/02/03 10:22:23;;;;;;;28.38;11.57;;;;;;;1.42;80.85;98874.28;5110295;27;20023;-65
2022/02/03 10:24:51;;;;;;;28.50;13.32;;;;;;;1.45;80.86;98871.09;5109017;27;20027;-65
2022/02/03 10:27:34;;;;;;;25.95;11.43;;;;;;;1.46;80.30;98861.13;5110460;27;20512;-66
2022/02/03 10:30:11;;;;;;;28.27;11.68;;;;;;;1.46;80.57;98859.22;5089918;28;20027;-67
2022/02/03 10:32:41;;;;;;;26.27;11.10;;;;;;;1.47;80.56;98860.88;5107902;27;20032;-67
2022/02/03 10:35:18;;;;;;;27.20;11.05;;;;;;;1.47;80.68;98852.78;5109308;27;20081;-66
2022/02/03 10:37:48;;;;;;;23.33;10.93;;;;;;;1.46;79.91;98853.81;5107847;27;20532;-66
2022/02/03 10:43:15;;;;;;;22.45;9.63;;;;;;;1.41;79.22;98853.72;5110970;27;19911;-66
2022/02/03 10:49:04;;;;;;;23.80;9.13;;;;;;;1.61;78.73;98860.72;5111143;27;20685;-65
2022/02/03 10:54:37;;;;;;;20.17;8.73;;;;;;;1.99;79.06;98850.66;5110030;27;20122;-66
2022/02/03 11:03:08;;;;;;;17.33;7.28;;;;;;;2.44;75.83;98855.59;5068088;28;20807;-65
2022/02/03 11:05:53;;;;;;;16.70;6.38;;;;;;;2.48;76.68;98853.22;5108193;27;20112;-66
2022/02/03 11:10:56;;;;;;;14.50;6.10;;;;;;;2.57;76.37;98854.56;5109923;28;20044;-67
2022/02/03 11:13:29;;;;;;;17.55;5.95;;;;;;;2.71;75.11;98857.00;5089098;28;20025;-66
2022/02/03 11:16:00;;;;;;;16.48;7.13;;;;;;;2.89;74.76;98850.66;5108100;27;20487;-67
2022/02/03 11:18:26;;;;;;;21.25;7.18;;;;;;;3.03;74.79;98843.13;5110310;27;20076;-67
2022/02/03 11:20:53;;;;;;;16.50;7.57;;;;;;;3.11;74.41;98834.59;5110769;27;20038;-67
2022/02/03 11:23:33;;;;;;;23.85;8.38;;;;;;;3.22;74.91;98843.81;5088853;27;20065;-66
2022/02/03 11:47:56;;;;;;;13.63;5.53;;;;;;;3.52;70.95;98821.09;5109293;27;20543;-67
2022/02/03 12:00:55;;;;;;;11.95;4.93;;;;;;;3.32;69.54;98803.34;5108873;27;20649;-68
2022/02/03 12:15:51;;;;;;;17.08;6.40;;;;;;;3.53;66.15;98801.03;5108441;28;20027;-68
2022/02/03 12:24:44;;;;;;;13.00;4.80;;;;;;;3.65;66.09;98782.84;5106206;28;20032;-68
2022/02/03 12:27:31;;;;;;;12.10;4.95;;;;;;;3.71;67.04;98789.16;5105605;28;20039;-67
2022/02/03 12:31:05;;;;;;;15.25;6.13;;;;;;;3.77;66.12;98781.94;5107338;28;20023;-69
2022/02/03 12:38:28;;;;;;;14.88;6.00;;;;;;;3.95;65.03;98767.31;5105206;28;20512;-69
2022/02/03 12:40:57;;;;;;;13.02;5.03;;;;;;;4.07;64.72;98768.09;5091400;28;20069;-69
2022/02/03 12:43:33;;;;;;;17.05;5.80;;;;;;;4.15;63.60;98772.28;5108444;28;20055;-69
2022/02/03 12:46:01;;;;;;;14.40;5.07;;;;;;;4.15;62.11;98764.97;5091929;28;20132;-68
2022/02/03 12:48:32;;;;;;;13.13;5.70;;;;;;;4.21;64.02;98760.44;5108732;28;20027;-69
2022/02/03 12:50:58;;;;;;;20.25;7.60;;;;;;;5.06;63.63;98760.31;5105012;28;20504;-68
2022/02/03 12:53:37;;;;;;;16.58;7.50;;;;;;;6.51;63.50;98753.53;5105856;28;20023;-68
2022/02/03 12:56:06;;;;;;;14.33;5.80;;;;;;;7.46;58.45;98751.00;5112320;27;20514;-68
2022/02/03 12:58:39;;;;;;;12.13;5.82;;;;;;;7.85;57.35;98739.59;5091248;28;20032;-68
2022/02/03 13:01:11;;;;;;;14.00;5.97;;;;;;;7.66;58.17;98743.97;5109624;28;20395;-68
2022/02/03 13:06:10;;;;;;;26.88;11.25;;;;;;;7.00;58.73;98743.47;5108784;28;20035;-68
2022/02/03 13:08:38;;;;;;;15.27;7.43;;;;;;;6.80;57.83;98736.00;5111440;28;20582;-68
2022/02/03 13:11:17;;;;;;;15.95;7.18;;;;;;;6.48;56.98;98737.72;5112164;28;20019;-66
2022/02/03 13:14:03;;;;;;;13.65;5.93;;;;;;;6.21;57.66;98743.25;5111888;28;20031;-69
2022/02/03 13:16:30;;;;;;;16.88;7.80;;;;;;;6.03;57.52;98739.00;5107175;27;20020;-67
2022/02/03 13:19:13;;;;;;;18.00;7.35;;;;;;;6.09;56.82;98730.66;5112131;28;20107;-68
2022/02/03 13:24:35;;;;;;;16.85;8.13;;;;;;;6.98;58.68;98732.00;5109918;28;20118;-65
2022/02/03 13:26:59;;;;;;;18.35;7.40;;;;;;;7.29;57.14;98735.69;5104932;28;20038;-67
2022/02/03 13:32:20;;;;;;;15.80;6.60;;;;;;;7.79;54.67;98727.03;5089232;27;20042;-67
2022/02/03 13:34:57;;;;;;;13.32;6.95;;;;;;;8.12;53.27;98722.16;5093135;28;20402;-66
2022/02/03 13:37:33;;;;;;;11.73;6.63;;;;;;;8.55;53.32;98718.31;5111370;27;20062;-66
2022/02/03 13:40:12;;;;;;;11.70;6.53;;;;;;;8.86;52.13;98716.31;5110792;28;20020;-67
2022/02/03 13:42:39;;;;;;;13.88;7.30;;;;;;;9.51;54.08;98725.59;5091862;28;20061;-66
2022/02/03 13:45:06;;;;;;;14.52;9.07;;;;;;;9.72;52.81;98715.34;5110899;28;20027;-67
2022/02/03 13:47:36;;;;;;;15.27;8.60;;;;;;;9.46;49.56;98700.97;5110992;28;20492;-67
2022/02/03 13:50:15;;;;;;;10.52;4.80;;;;;;;9.03;48.02;98701.47;5110586;28;20403;-67
2022/02/03 13:52:49;;;;;;;10.18;5.30;;;;;;;8.53;48.13;98704.09;5093278;28;20028;-67
2022/02/03 14:20:40;;;;;;;9.93;4.32;;;;;;;6.60;52.37;98693.09;5027292;28;20038;-67
2022/02/03 14:28:31;;;;;;;12.68;6.28;;;;;;;7.13;52.62;98671.25;5093326;28;20076;-66
2022/02/03 14:31:00;;;;;;;20.02;9.32;;;;;;;7.42;52.50;98671.59;5111648;27;20069;-68
2022/02/03 14:33:32;;;;;;;27.20;10.02;;;;;;;7.29;52.46;98667.47;5111749;27;20031;-66
2022/02/03 14:36:10;;;;;;;16.63;7.13;;;;;;;7.09;51.69;98668.25;5111599;27;20547;-67
2022/02/03 14:38:52;;;;;;;13.32;5.63;;;;;;;6.76;51.31;98664.81;5095090;27;20082;-67
2022/02/03 14:41:30;;;;;;;16.13;7.13;;;;;;;6.49;51.34;98662.25;5107171;28;20034;-66
2022/02/03 14:43:58;;;;;;;14.82;6.72;;;;;;;6.28;51.95;98666.78;5107547;27;20040;-68
2022/02/03 14:46:25;;;;;;;10.68;5.20;;;;;;;6.02;51.66;98658.41;5109035;27;20107;-68
2022/02/03 14:48:50;;;;;;;14.02;6.10;;;;;;;5.73;52.93;98656.78;5107848;28;20015;-68
2022/02/03 14:51:21;;;;;;;12.63;5.60;;;;;;;5.52;52.68;98658.50;5106640;28;20498;-68
2022/02/03 14:57:59;;;;;;;12.32;5.78;;;;;;;5.39;53.93;98657.03;5109665;27;20027;-67
2022/02/03 14:59:16;;;;;;;9.60;4.60;;;;;;;4.76;54.60;98660.19;5110040;27;20030;-67
2022/02/03 15:01:42;;;;;;;11.02;4.90;;;;;;;4.53;55.52;98656.63;5108870;28;20023;-68
2022/02/03 15:04:14;;;;;;;11.50;5.00;;;;;;;4.36;56.24;98664.00;5089517;28;20046;-67
2022/02/03 15:06:44;;;;;;;13.85;5.65;;;;;;;4.22;56.81;98649.97;5108187;28;20077;-68
2022/02/03 15:09:17;;;;;;;16.20;6.72;;;;;;;4.10;56.86;98648.16;5108401;28;20035;-67
2022/02/03 15:14:17;;;;;;;24.80;10.07;;;;;;;3.92;57.95;98643.84;5110396;27;20032;-68
2022/02/03 15:16:43;;;;;;;20.13;7.57;;;;;;;3.79;58.41;98650.41;5109717;28;20035;-68
2022/02/03 15:19:09;;;;;;;12.93;6.47;;;;;;;3.67;58.71;98641.53;5109906;27;20023;-67
2022/02/03 15:21:35;;;;;;;18.88;11.73;;;;;;;3.57;59.33;98653.03;5109544;27;20023;-68
2022/02/03 15:24:03;;;;;;;28.73;15.02;;;;;;;3.48;59.50;98646.38;5110308;27;20027;-68
2022/02/03 15:26:29;;;;;;;43.40;19.40;;;;;;;3.39;59.65;98651.38;5111023;28;20073;-67
2022/02/03 15:28:55;;;;;;;53.83;21.50;;;;;;;3.30;61.00;98639.28;5111322;27;20024;-68
2022/02/03 15:31:23;;;;;;;32.03;13.93;;;;;;;3.20;61.30;98642.63;5111003;27;20030;-67
2022/02/03 15:33:56;;;;;;;32.30;14.20;;;;;;;3.09;61.42;98634.31;5106584;28;20024;-67
2022/02/03 15:36:22;;;;;;;27.67;11.73;;;;;;;3.00;61.58;98630.34;5110935;27;20160;-67
2022/02/03 15:38:49;;;;;;;24.15;8.60;;;;;;;2.91;62.34;98626.38;5109003;28;20016;-66
2022/02/03 15:41:23;;;;;;;37.45;16.50;;;;;;;2.80;62.76;98633.47;5111048;27;20462;-67
2022/02/03 15:43:50;;;;;;;21.40;9.35;;;;;;;2.71;63.73;98622.22;5091196;28;20126;-65
2022/02/03 15:46:18;;;;;;;25.42;10.60;;;;;;;2.64;63.23;98625.06;5110793;27;20091;-67
2022/02/03 15:48:53;;;;;;;21.13;10.88;;;;;;;2.59;64.17;98632.25;5111134;27;20504;-66
2022/02/03 16:18:20;;;;;;;27.58;10.80;;;;;;;2.21;66.56;98620.94;5107149;28;20061;-66
2022/02/03 16:20:59;;;;;;;20.48;10.18;;;;;;;2.20;66.73;98622.00;5111440;28;20027;-66
2022/02/03 16:50:55;;;;;;;26.63;10.93;;;;;;;2.19;67.17;98612.22;5056359;28;20062;-68
2022/02/03 16:53:19;;;;;;;28.45;12.50;;;;;;;2.19;66.55;98606.81;5112395;28;20031;-67
2022/02/03 16:55:46;;;;;;;25.40;9.93;;;;;;;2.21;66.49;98612.81;5112239;28;20020;-68
2022/02/03 16:58:13;;;;;;;27.10;10.60;;;;;;;2.21;66.67;98607.41;5094345;28;20498;-67
2022/02/03 17:00:39;;;;;;;22.55;11.07;;;;;;;2.19;67.08;98604.91;5112558;28;20020;-67
2022/02/03 17:03:04;;;;;;;26.90;11.20;;;;;;;2.21;67.23;98605.50;5112929;28;20027;-67
2022/02/03 17:05:30;;;;;;;25.98;10.73;;;;;;;2.21;66.79;98594.69;5112492;28;20032;-67
2022/02/03 17:07:57;;;;;;;31.50;11.52;;;;;;;2.21;67.01;98593.88;5110059;28;20023;-68
2022/02/03 17:10:22;;;;;;;32.88;12.65;;;;;;;2.20;66.91;98595.75;5111274;28;20498;-68
2022/02/03 17:12:47;;;;;;;31.17;10.38;;;;;;;2.23;67.25;98591.75;5094244;28;20019;-67
2022/02/03 17:15:13;;;;;;;26.45;11.35;;;;;;;2.24;67.24;98593.41;5112353;28;20034;-66
2022/02/03 17:17:41;;;;;;;23.35;10.85;;;;;;;2.26;66.35;98583.13;5113020;28;20399;-65
2022/02/03 17:20:07;;;;;;;18.67;8.20;;;;;;;2.26;66.56;98580.41;5112817;28;20034;-66
2022/02/03 17:22:38;;;;;;;27.13;9.18;;;;;;;2.25;66.16;98573.38;5113112;28;20023;-66
2022/02/03 17:25:10;;;;;;;21.15;7.93;;;;;;;2.21;65.84;98573.03;5112313;28;20030;-67
2022/02/03 17:30:16;;;;;;;23.10;8.93;;;;;;;2.22;65.95;98571.97;5113144;28;20031;-66
2022/02/03 18:11:24;;;;;;;23.35;9.23;;;;;;;2.12;66.13;98544.69;5111721;28;20055;-66
2022/02/03 18:53:16;;;;;;;98.85;32.85;;;;;;;2.45;66.12;98489.03;5110250;28;20119;-67
2022/02/03 19:03:26;;;;;;;53.88;20.77;;;;;;;2.40;66.37;98482.72;5106674;27;20047;-66
2022/02/03 19:12:16;;;;;;;59.50;23.95;;;;;;;2.22;65.71;98485.38;5110898;28;20112;-66
2022/02/03 20:03:51;;;;;;;28.58;11.65;;;;;;;1.89;66.81;98440.06;5110177;28;20069;-66
2022/02/03 20:08:24;;;;;;;27.52;12.07;;;;;;;1.91;66.67;98437.94;5110750;28;20040;-67
2022/02/03 20:10:51;;;;;;;28.70;12.57;;;;;;;1.90;66.66;98444.41;5110602;28;20061;-66
2022/02/03 20:13:17;;;;;;;32.00;12.80;;;;;;;1.89;66.98;98435.50;5109082;28;20032;-67
2022/02/03 20:15:43;;;;;;;28.52;13.13;;;;;;;1.89;66.35;98427.38;5091102;28;20483;-66
2022/02/03 20:18:11;;;;;;;27.75;13.25;;;;;;;1.89;66.19;98431.97;5110368;28;20059;-67
2022/02/03 20:20:38;;;;;;;27.42;13.20;;;;;;;1.89;66.55;98427.38;5109889;28;20589;-66
2022/02/03 20:23:08;;;;;;;33.97;14.27;;;;;;;1.90;66.47;98428.19;5110162;28;20016;-66
2022/02/03 20:25:34;;;;;;;27.08;12.02;;;;;;;1.92;67.14;98423.38;5109657;28;20024;-67
2022/02/03 20:28:02;;;;;;;32.25;14.90;;;;;;;1.93;66.37;98425.00;5109952;28;20027;-66
2022/02/03 20:30:28;;;;;;;49.80;17.90;;;;;;;1.91;66.33;98430.66;5110035;28;20032;-66
2022/02/03 20:32:53;;;;;;;79.13;23.08;;;;;;;1.91;66.70;98427.13;5109923;28;20497;-66
2022/02/03 20:35:19;;;;;;;86.10;23.63;;;;;;;1.92;66.96;98434.19;5109951;28;20027;-66
2022/02/03 20:37:44;;;;;;;88.32;25.15;;;;;;;1.94;66.69;98434.75;5109901;28;20053;-66
2022/02/03 20:40:10;;;;;;;84.25;23.35;;;;;;;1.93;66.26;98433.13;5110035;28;20081;-66
2022/02/03 20:42:36;;;;;;;90.97;26.30;;;;;;;1.89;66.32;98430.09;5109284;28;20031;-66
2022/02/03 20:45:03;;;;;;;95.30;27.58;;;;;;;1.87;66.35;98426.81;5109587;28;20028;-66
2022/02/03 20:47:31;;;;;;;94.13;27.55;;;;;;;1.87;67.19;98428.66;5091333;28;20483;-66
2022/02/03 20:50:00;;;;;;;61.50;19.88;;;;;;;1.87;66.52;98432.22;5109205;28;20156;-66
2022/02/03 20:52:26;;;;;;;54.47;19.45;;;;;;;1.90;67.25;98444.41;5109831;28;20023;-66
2022/02/03 20:54:51;;;;;;;57.03;19.90;;;;;;;1.89;67.15;98445.47;5109577;28;20016;-67
2022/02/03 20:57:17;;;;;;;47.35;18.90;;;;;;;1.88;67.22;98444.66;5109591;28;20024;-67
2022/02/03 21:02:43;;;;;;;44.22;16.65;;;;;;;1.91;66.56;98449.59;5110218;28;20109;-67
2022/02/03 21:05:12;;;;;;;50.30;19.17;;;;;;;1.89;67.01;98453.59;5110003;28;20395;-67
2022/02/03 21:07:41;;;;;;;45.13;17.10;;;;;;;1.87;66.53;98448.44;5109495;28;20034;-67
2022/02/03 21:10:10;;;;;;;51.72;17.58;;;;;;;1.85;67.36;98445.16;5109102;28;20457;-67
2022/02/03 21:12:35;;;;;;;47.42;17.63;;;;;;;1.85;66.99;98447.00;5109267;28;20028;-67
2022/02/03 21:15:01;;;;;;;46.63;17.63;;;;;;;1.87;67.16;98458.41;5110610;28;20643;-66
2022/02/03 21:17:30;;;;;;;49.85;17.60;;;;;;;1.87;67.40;98461.97;5113237;28;20059;-67
2022/02/03 21:20:06;;;;;;;60.65;19.83;;;;;;;1.87;67.38;98453.84;5092263;28;20102;-67
2022/02/03 21:22:32;;;;;;;79.88;26.98;;;;;;;1.86;67.08;98454.91;5112894;28;20037;-66
2022/02/03 21:25:03;;;;;;;71.78;23.02;;;;;;;1.87;66.89;98466.53;5094609;28;20038;-67
2022/02/03 21:27:30;;;;;;;70.78;22.27;;;;;;;1.88;67.61;98455.50;5112653;28;20028;-67
2022/02/03 21:29:56;;;;;;;53.78;19.60;;;;;;;1.91;67.37;98454.19;5113094;28;20028;-67
2022/02/03 21:32:21;;;;;;;49.42;17.20;;;;;;;1.93;67.78;98449.34;5112641;28;20035;-67
2022/02/03 21:34:51;;;;;;;50.95;15.80;;;;;;;1.93;67.83;98457.47;5093573;28;20789;-67
2022/02/03 21:37:17;;;;;;;41.35;14.15;;;;;;;1.93;67.99;98461.00;5112103;28;20043;-67
2022/02/03 21:39:42;;;;;;;47.13;15.55;;;;;;;1.92;68.02;98462.06;5112586;28;20020;-67
2022/02/03 21:42:07;;;;;;;71.05;24.17;;;;;;;1.91;68.99;98451.47;5112595;28;20024;-67
2022/02/03 21:44:33;;;;;;;43.28;13.93;;;;;;;1.91;69.41;98454.19;5111875;28;20040;-67
2022/02/03 21:46:58;;;;;;;31.65;10.90;;;;;;;1.92;69.18;98459.38;5112199;28;20390;-67
2022/02/03 21:49:24;;;;;;;33.00;11.13;;;;;;;1.92;68.96;98466.63;5112535;28;20099;-67
2022/02/03 21:51:54;;;;;;;29.90;10.50;;;;;;;1.93;69.23;98463.72;5092796;28;20019;-67
2022/02/03 21:54:20;;;;;;;29.65;9.50;;;;;;;1.94;69.99;98453.69;5111905;28;20028;-66
2022/02/03 21:56:47;;;;;;;23.90;7.53;;;;;;;1.93;70.68;98452.91;5112098;28;20036;-66
2022/02/03 21:59:15;;;;;;;30.15;8.27;;;;;;;1.93;70.93;98471.81;5112218;28;20023;-66
2022/02/03 22:01:41;;;;;;;25.38;7.95;;;;;;;1.90;70.64;98469.59;5113022;27;20030;-67
2022/02/03 22:04:10;;;;;;;25.55;8.48;;;;;;;1.86;71.61;98471.13;5111624;28;20129;-66
2022/02/03 22:06:36;;;;;;;37.67;10.80;;;;;;;1.82;71.30;98475.38;5111631;28;20032;-67
2022/02/03 22:09:03;;;;;;;41.72;12.65;;;;;;;1.77;71.42;98468.00;5111637;28;20028;-66
2022/02/03 22:11:30;;;;;;;41.83;13.60;;;;;;;1.74;72.37;98470.31;5093720;28;20028;-67
2022/02/03 22:13:55;;;;;;;30.88;9.35;;;;;;;1.68;72.94;98460.47;5092974;28;20034;-67
2022/02/03 22:16:25;;;;;;;28.25;9.65;;;;;;;1.62;73.65;98460.38;5093298;28;20394;-69
2022/02/03 22:18:51;;;;;;;22.33;9.48;;;;;;;1.56;73.39;98458.63;5094543;28;20032;-66
2022/02/03 22:23:56;;;;;;;18.63;6.70;;;;;;;1.46;74.18;98456.50;5111981;28;20031;-67
2022/02/03 22:42:38;;;;;;;25.15;9.30;;;;;;;0.97;78.15;98451.34;5112374;28;20399;-69
2022/02/03 22:45:24;;;;;;;16.55;6.75;;;;;;;0.92;77.97;98447.72;5093174;28;20032;-67
2022/02/03 22:50:17;;;;;;;19.52;7.38;;;;;;;0.81;78.13;98449.34;5112408;28;20040;-67